createdAt,value
2022-10-09T00:02:42.808Z,4.57
2022-10-09T00:05:28.661Z,4.90
2022-10-09T00:08:14.409Z,5.15
2022-10-09T00:11:00.285Z,5.25
2022-10-09T00:13:46.445Z,6.20
2022-10-09T00:16:33.064Z,6.45
2022-10-09T00:19:18.817Z,6.03
2022-10-09T00:22:04.503Z,6.95
2022-10-09T00:24:50.248Z,6.13
2022-10-09T00:27:36.094Z,5.30
2022-10-09T00:30:22.138Z,5.47
2022-10-09T00:33:08.071Z,5.55
2022-10-09T00:35:53.759Z,6.40
2022-10-09T00:38:39.771Z,5.55
2022-10-09T00:41:29.099Z,5.95
2022-10-09T00:44:49.147Z,5.85
2022-10-09T00:47:41.869Z,6.63
2022-10-09T00:50:44.733Z,5.97
2022-10-09T00:53:31.096Z,5.53
2022-10-09T00:56:17.194Z,10.35
2022-10-09T00:59:03.759Z,36.22
2022-10-09T01:01:50.554Z,35.60
2022-10-09T01:04:37.801Z,26.17
2022-10-09T01:07:31.865Z,19.10
2022-10-09T01:10:46.729Z,13.63
2022-10-09T01:13:51.175Z,9.63
2022-10-09T01:16:46.856Z,7.97
2022-10-09T01:19:47.839Z,8.75
2022-10-09T01:22:51.371Z,8.00
2022-10-09T01:26:00.667Z,8.90
2022-10-09T01:28:57.164Z,7.72
2022-10-09T01:31:47.953Z,8.98
2022-10-09T01:34:36.251Z,9.00
2022-10-09T01:37:24.596Z,8.57
2022-10-09T01:40:14.645Z,9.23
2022-10-09T01:43:02.831Z,8.10
2022-10-09T01:45:50.315Z,7.97
2022-10-09T01:48:38.617Z,7.45
2022-10-09T01:51:31.239Z,7.78
2022-10-09T01:54:24.269Z,6.80
2022-10-09T01:57:13.888Z,5.45
2022-10-09T02:00:06.723Z,5.88
2022-10-09T02:02:59.763Z,5.80
2022-10-09T02:05:51.403Z,5.65
2022-10-09T02:08:40.459Z,5.93
2022-10-09T02:11:32.315Z,5.05
2022-10-09T02:14:19.662Z,5.30
2022-10-09T02:17:13.316Z,5.30
2022-10-09T02:20:10.459Z,5.35
2022-10-09T02:22:58.400Z,5.35
2022-10-09T02:25:46.638Z,5.07
2022-10-09T02:28:34.751Z,5.15
2022-10-09T02:31:29.176Z,6.20
2022-10-09T02:34:21.232Z,5.82
2022-10-09T02:37:09.123Z,5.80
2022-10-09T02:39:56.591Z,5.97
2022-10-09T02:42:46.370Z,6.18
2022-10-09T02:45:36.054Z,6.03
2022-10-09T02:48:24.782Z,5.28
2022-10-09T02:51:12.458Z,5.30
2022-10-09T02:54:03.333Z,5.15
2022-10-09T02:56:52.312Z,5.00
2022-10-09T02:59:39.354Z,5.03
2022-10-09T03:02:27.264Z,4.68
2022-10-09T03:05:15.227Z,4.90
2022-10-09T03:08:03.521Z,6.85
2022-10-09T03:10:51.446Z,5.78
2022-10-09T03:13:40.450Z,5.60
2022-10-09T03:16:28.627Z,6.18
2022-10-09T03:19:15.538Z,5.97
2022-10-09T03:22:02.381Z,6.18
2022-10-09T03:24:49.451Z,5.32
2022-10-09T03:27:37.212Z,5.40
2022-10-09T03:30:24.907Z,5.57
2022-10-09T03:33:12.254Z,4.80
2022-10-09T03:35:59.210Z,5.32
2022-10-09T03:38:46.401Z,5.40
2022-10-09T03:41:33.277Z,5.22
2022-10-09T03:44:20.440Z,5.07
2022-10-09T03:47:07.512Z,5.53
2022-10-09T03:49:56.450Z,5.57
2022-10-09T03:52:44.733Z,5.68
2022-10-09T03:55:32.436Z,5.13
2022-10-09T03:58:20.297Z,5.55
2022-10-09T04:01:08.582Z,6.00
2022-10-09T04:03:55.450Z,6.50
2022-10-09T04:06:42.592Z,6.13
2022-10-09T04:09:30.216Z,5.40
2022-10-09T04:12:19.936Z,5.25
2022-10-09T04:15:07.992Z,7.05
2022-10-09T04:17:56.800Z,6.45
2022-10-09T04:20:51.763Z,6.43
2022-10-09T04:23:38.991Z,6.05
2022-10-09T04:26:26.389Z,6.53
2022-10-09T04:29:14.282Z,6.15
2022-10-09T04:32:01.983Z,6.13
2022-10-09T04:34:49.401Z,7.32
2022-10-09T04:37:37.235Z,7.43
2022-10-09T04:40:24.883Z,7.43
2022-10-09T04:43:11.916Z,6.00
2022-10-09T04:46:04.816Z,6.20
2022-10-09T04:48:51.215Z,6.18
2022-10-09T04:51:38.049Z,6.47
2022-10-09T04:54:25.603Z,7.40
2022-10-09T04:57:12.474Z,7.00
2022-10-09T04:59:59.666Z,7.20
2022-10-09T05:02:47.013Z,7.05
2022-10-09T05:05:34.365Z,6.82
2022-10-09T05:08:22.112Z,6.47
2022-10-09T05:11:12.493Z,7.97
2022-10-09T05:14:00.656Z,6.00
2022-10-09T05:17:12.556Z,5.93
2022-10-09T05:19:59.729Z,5.68
2022-10-09T05:22:48.058Z,6.07
2022-10-09T05:25:34.901Z,6.55
2022-10-09T05:28:21.734Z,6.43
2022-10-09T05:31:09.617Z,7.40
2022-10-09T05:33:59.986Z,7.00
2022-10-09T05:36:47.668Z,7.28
2022-10-09T05:39:36.457Z,7.88
2022-10-09T05:42:22.760Z,7.70
2022-10-09T05:45:09.774Z,7.15
2022-10-09T05:47:57.209Z,7.53
2022-10-09T05:50:48.996Z,8.98
2022-10-09T05:53:43.523Z,8.23
2022-10-09T05:56:36.643Z,7.30
2022-10-09T06:02:17.487Z,7.90
2022-10-09T06:05:05.574Z,6.90
2022-10-09T06:07:55.649Z,7.20
2022-10-09T06:10:42.810Z,7.20
2022-10-09T06:13:29.525Z,7.00
2022-10-09T06:16:17.989Z,7.07
2022-10-09T06:19:06.809Z,7.38
2022-10-09T06:21:54.454Z,7.22
2022-10-09T06:24:41.062Z,7.10
2022-10-09T06:27:28.648Z,8.85
2022-10-09T06:30:15.100Z,8.57
2022-10-09T06:33:07.040Z,8.45
2022-10-09T06:36:05.598Z,7.50
2022-10-09T06:38:56.631Z,8.02
2022-10-09T06:41:44.094Z,7.10
2022-10-09T06:44:46.857Z,6.35
2022-10-09T06:47:34.595Z,5.00
2022-10-09T06:50:21.146Z,5.95
2022-10-09T06:53:08.104Z,5.30
2022-10-09T06:55:58.071Z,5.50
2022-10-09T06:58:45.169Z,6.53
2022-10-09T07:01:32.312Z,5.25
2022-10-09T07:04:18.924Z,5.30
2022-10-09T07:07:05.018Z,5.38
2022-10-09T07:09:52.839Z,5.53
2022-10-09T07:12:39.272Z,6.88
2022-10-09T07:15:25.339Z,7.25
2022-10-09T07:18:11.582Z,6.22
2022-10-09T07:20:57.555Z,24.75
2022-10-09T07:23:43.610Z,26.73
2022-10-09T07:26:31.510Z,44.70
2022-10-09T07:29:18.920Z,29.27
2022-10-09T07:32:08.266Z,15.90
2022-10-09T07:34:56.198Z,18.33
2022-10-09T07:37:41.912Z,13.00
2022-10-09T07:40:27.620Z,11.45
2022-10-09T07:43:13.431Z,8.15
2022-10-09T07:46:06.266Z,29.58
2022-10-09T07:48:52.379Z,32.35
2022-10-09T07:51:51.186Z,34.15
2022-10-09T07:55:14.130Z,21.85
2022-10-09T07:58:00.014Z,14.43
2022-10-09T08:00:45.831Z,15.20
2022-10-09T08:03:31.518Z,9.65
2022-10-09T08:06:18.346Z,8.20
2022-10-09T08:09:05.569Z,8.57
2022-10-09T08:16:35.393Z,7.07
2022-10-09T08:19:21.187Z,7.28
2022-10-09T08:22:07.476Z,7.20
2022-10-09T08:24:53.446Z,6.82
2022-10-09T08:27:39.190Z,8.20
2022-10-09T08:30:25.071Z,8.07
2022-10-09T08:33:12.407Z,9.02
2022-10-09T08:39:41.916Z,9.60
2022-10-09T08:42:59.948Z,7.82
2022-10-09T08:45:47.421Z,9.18
2022-10-09T08:48:36.116Z,10.05
2022-10-09T08:51:27.756Z,8.18
2022-10-09T08:54:27.735Z,9.25
2022-10-09T08:57:16.910Z,10.88
2022-10-09T09:00:02.793Z,12.50
2022-10-09T09:03:19.958Z,13.35
2022-10-09T09:06:43.115Z,12.98
2022-10-09T09:10:20.349Z,13.70
2022-10-09T09:13:35.010Z,13.93
2022-10-09T09:17:18.080Z,12.32
2022-10-09T09:20:16.670Z,11.85
2022-10-09T09:23:13.651Z,12.15
2022-10-09T09:26:19.917Z,12.02
2022-10-09T09:29:05.980Z,12.20
2022-10-09T09:31:55.587Z,12.05
2022-10-09T09:34:41.911Z,11.32
2022-10-09T09:37:27.837Z,11.82
2022-10-09T09:44:00.253Z,11.50
2022-10-09T09:46:47.455Z,10.88
2022-10-09T09:49:33.477Z,10.82
2022-10-09T09:52:19.620Z,11.73
2022-10-09T09:55:06.361Z,10.52
2022-10-09T09:57:52.638Z,11.15
2022-10-09T10:00:38.867Z,10.50
2022-10-09T10:03:26.723Z,10.88
2022-10-09T10:06:59.484Z,10.60
2022-10-09T10:09:45.651Z,11.70
2022-10-09T10:12:31.800Z,11.38
2022-10-09T10:19:55.795Z,11.63
2022-10-09T10:23:30.813Z,10.95
2022-10-09T10:26:55.973Z,10.98
2022-10-09T10:33:59.222Z,10.85
2022-10-09T10:36:46.969Z,10.38
2022-10-09T10:39:47.072Z,11.30
2022-10-09T10:43:08.169Z,11.15
2022-10-09T10:46:06.688Z,10.68
2022-10-09T10:48:53.392Z,11.23
2022-10-09T10:52:00.971Z,11.63
2022-10-09T10:55:29.372Z,11.00
2022-10-09T10:58:31.162Z,9.93
2022-10-09T11:01:56.757Z,10.52
2022-10-09T11:04:46.379Z,10.18
2022-10-09T11:07:46.348Z,10.95
2022-10-09T11:11:07.791Z,27.95
2022-10-09T11:13:56.226Z,19.45
2022-10-09T11:17:25.093Z,11.88
2022-10-09T11:20:30.585Z,11.20
2022-10-09T11:23:50.465Z,10.95
2022-10-09T11:27:03.435Z,10.05
2022-10-09T11:30:00.531Z,9.73
2022-10-09T11:33:21.722Z,17.98
2022-10-09T11:36:15.011Z,12.95
2022-10-09T11:39:12.246Z,10.98
2022-10-09T11:41:59.167Z,10.27
2022-10-09T11:45:09.790Z,10.40
2022-10-09T11:48:08.212Z,9.75
2022-10-09T11:51:20.195Z,10.60
2022-10-09T11:54:15.368Z,10.85
2022-10-09T11:57:06.336Z,11.43
2022-10-09T12:00:04.310Z,12.38
2022-10-09T12:03:08.649Z,12.52
2022-10-09T12:06:15.088Z,13.13
2022-10-09T12:09:05.935Z,12.63
2022-10-09T12:12:31.751Z,12.70
2022-10-09T12:15:27.977Z,12.70
2022-10-09T12:18:23.775Z,12.20
2022-10-09T12:21:48.373Z,11.80
2022-10-09T12:24:41.160Z,12.50
2022-10-09T12:27:31.205Z,12.05
2022-10-09T12:30:22.266Z,11.65
2022-10-09T12:33:37.228Z,11.90
2022-10-09T12:36:28.537Z,12.30
2022-10-09T12:39:23.731Z,12.27
2022-10-09T12:42:19.525Z,14.73
2022-10-09T12:45:05.851Z,11.88
2022-10-09T12:47:52.909Z,11.90
2022-10-09T12:50:39.497Z,12.43
2022-10-09T12:53:27.859Z,13.48
2022-10-09T12:56:14.895Z,12.27
2022-10-09T12:59:10.403Z,11.48
2022-10-09T13:01:58.838Z,11.35
2022-10-09T13:05:00.574Z,11.73
2022-10-09T13:07:52.052Z,11.27
2022-10-09T13:10:38.094Z,11.35
2022-10-09T13:13:26.938Z,11.35
2022-10-09T13:16:12.923Z,10.38
2022-10-09T13:19:03.939Z,11.13
2022-10-09T13:22:22.313Z,9.68
2022-10-09T13:25:09.519Z,9.90
2022-10-09T13:27:56.553Z,10.00
2022-10-09T13:30:42.505Z,10.10
2022-10-09T13:33:28.465Z,30.77
2022-10-09T13:36:15.462Z,14.18
2022-10-09T13:39:01.627Z,11.00
2022-10-09T13:42:00.091Z,9.48
2022-10-09T13:44:46.594Z,8.77
2022-10-09T13:47:32.279Z,8.05
2022-10-09T13:50:19.771Z,8.63
2022-10-09T13:53:05.570Z,8.48
2022-10-09T13:55:59.984Z,8.30
2022-10-09T13:58:46.928Z,10.45
2022-10-09T14:01:33.287Z,11.02
2022-10-09T14:04:19.523Z,10.35
2022-10-09T14:07:05.604Z,9.65
2022-10-09T14:09:51.646Z,11.63
2022-10-09T14:12:37.409Z,8.85
2022-10-09T14:15:23.349Z,8.75
2022-10-09T14:18:09.560Z,9.40
2022-10-09T14:20:55.401Z,9.85
2022-10-09T14:23:41.351Z,10.40
2022-10-09T14:26:28.863Z,11.48
2022-10-09T14:29:14.637Z,10.13
2022-10-09T14:32:00.375Z,10.70
2022-10-09T14:34:50.326Z,11.60
2022-10-09T14:37:41.492Z,10.18
2022-10-09T14:40:27.783Z,11.00
2022-10-09T14:43:22.841Z,10.77
2022-10-09T14:46:12.600Z,11.80
2022-10-09T14:48:59.056Z,11.85
2022-10-09T14:51:45.206Z,11.73
2022-10-09T14:54:31.089Z,11.30
2022-10-09T14:57:18.982Z,10.52
2022-10-09T15:00:06.830Z,12.20
2022-10-09T15:02:54.172Z,15.27
2022-10-09T15:05:42.513Z,15.00
2022-10-09T15:08:33.254Z,14.30
2022-10-09T15:11:19.121Z,17.65
2022-10-09T15:14:12.306Z,17.92
2022-10-09T15:16:58.356Z,18.48
2022-10-09T15:19:44.236Z,19.73
2022-10-09T15:22:45.496Z,20.48
2022-10-09T15:25:31.834Z,20.92
2022-10-09T15:28:19.040Z,27.60
2022-10-09T15:31:06.753Z,29.48
2022-10-09T15:33:54.039Z,29.65
2022-10-09T15:36:40.423Z,30.27
2022-10-09T15:39:26.083Z,32.05
2022-10-09T15:42:11.975Z,28.48
2022-10-09T15:44:57.682Z,30.08
2022-10-09T15:47:51.395Z,31.20
2022-10-09T15:50:46.400Z,29.38
2022-10-09T15:53:32.057Z,26.80
2022-10-09T15:56:24.737Z,26.95
2022-10-09T15:59:12.706Z,22.58
2022-10-09T16:01:58.478Z,21.55
2022-10-09T16:04:49.702Z,24.92
2022-10-09T16:07:38.683Z,24.60
2022-10-09T16:11:00.734Z,24.73
2022-10-09T16:13:46.644Z,20.95
2022-10-09T16:16:32.804Z,21.05
2022-10-09T16:19:19.007Z,22.23
2022-10-09T16:22:06.041Z,22.77
2022-10-09T16:24:51.982Z,22.67
2022-10-09T16:27:37.686Z,23.63
2022-10-09T16:30:23.525Z,21.70
2022-10-09T16:33:12.908Z,21.90
2022-10-09T16:36:22.138Z,20.95
2022-10-09T16:39:07.934Z,22.55
2022-10-09T16:41:54.180Z,23.45
2022-10-09T16:44:40.142Z,26.70
2022-10-09T16:47:26.323Z,25.95
2022-10-09T16:50:12.411Z,26.58
2022-10-09T16:52:58.749Z,24.63
2022-10-09T16:55:49.859Z,24.33
2022-10-09T16:58:36.059Z,24.45
2022-10-09T17:01:22.672Z,23.45
2022-10-09T17:04:08.711Z,22.52
2022-10-09T17:06:54.888Z,21.77
2022-10-09T17:09:41.298Z,22.88
2022-10-09T17:12:27.418Z,22.50
2022-10-09T17:15:13.673Z,24.85
2022-10-09T17:17:59.762Z,24.60
2022-10-09T17:20:45.526Z,24.63
2022-10-09T17:23:31.491Z,24.45
2022-10-09T17:26:19.530Z,22.88
2022-10-09T17:29:06.068Z,23.35
2022-10-09T17:31:52.317Z,22.75
2022-10-09T17:34:43.109Z,23.45
2022-10-09T17:37:29.161Z,23.77
2022-10-09T17:40:16.100Z,26.13
2022-10-09T17:43:04.061Z,30.02
2022-10-09T17:46:01.677Z,31.52
2022-10-09T17:49:08.541Z,32.35
2022-10-09T17:51:54.825Z,30.05
2022-10-09T17:54:41.161Z,28.25
2022-10-09T17:57:27.579Z,27.48
2022-10-09T18:00:17.520Z,25.52
2022-10-09T18:03:21.642Z,25.45
2022-10-09T18:06:11.369Z,25.50
2022-10-09T18:08:58.067Z,28.50
2022-10-09T18:11:44.038Z,29.17
2022-10-09T18:14:30.088Z,29.27
2022-10-09T18:17:15.922Z,28.77
2022-10-09T18:20:01.722Z,28.00
2022-10-09T18:22:47.892Z,29.08
2022-10-09T18:25:34.922Z,27.88
2022-10-09T18:28:20.947Z,28.00
2022-10-09T18:31:08.424Z,27.08
2022-10-09T18:33:54.664Z,27.92
2022-10-09T18:36:40.943Z,27.67
2022-10-09T18:39:28.684Z,27.95
2022-10-09T18:42:14.866Z,27.90
2022-10-09T18:45:01.018Z,29.67
2022-10-09T18:47:46.877Z,27.45
2022-10-09T18:50:33.220Z,32.08
2022-10-09T18:53:19.211Z,29.20
2022-10-09T18:56:07.188Z,26.23
2022-10-09T18:58:53.542Z,25.45
2022-10-09T19:01:39.997Z,24.85
2022-10-09T19:04:25.737Z,24.73
2022-10-09T19:07:11.754Z,27.15
2022-10-09T19:09:57.783Z,24.27
2022-10-09T19:12:44.244Z,26.42
2022-10-09T19:15:30.479Z,21.90
2022-10-09T19:18:16.491Z,23.55
2022-10-09T19:21:03.097Z,21.83
2022-10-09T19:23:51.145Z,21.85
2022-10-09T19:26:41.054Z,22.38
2022-10-09T19:29:27.444Z,22.48
2022-10-09T19:32:14.131Z,22.75
2022-10-09T19:35:00.733Z,22.35
2022-10-09T19:37:47.404Z,24.70
2022-10-09T19:40:35.067Z,23.83
2022-10-09T19:43:24.374Z,26.05
2022-10-09T19:46:17.738Z,24.88
2022-10-09T19:49:04.721Z,23.80
2022-10-09T19:51:50.913Z,24.20
2022-10-09T19:54:37.877Z,23.10
2022-10-09T19:57:23.707Z,21.35
2022-10-09T20:00:11.652Z,21.63
2022-10-09T20:02:57.750Z,21.65
2022-10-09T20:05:43.766Z,23.45
2022-10-09T20:08:29.967Z,22.20
2022-10-09T20:11:16.250Z,21.67
2022-10-09T20:14:03.444Z,22.15
2022-10-09T20:16:49.171Z,23.38
2022-10-09T20:19:35.380Z,24.52
2022-10-09T20:22:21.450Z,24.05
2022-10-09T20:25:07.986Z,24.25
2022-10-09T20:27:54.038Z,21.75
2022-10-09T20:30:40.443Z,23.08
2022-10-09T20:33:28.286Z,23.80
2022-10-09T20:36:26.329Z,23.15
2022-10-09T20:39:15.408Z,23.88
2022-10-09T20:42:01.462Z,22.20
2022-10-09T20:44:49.653Z,22.60
2022-10-09T20:47:36.785Z,21.67
2022-10-09T20:50:22.494Z,21.02
2022-10-09T20:53:10.157Z,23.00
2022-10-09T20:56:01.155Z,20.17
2022-10-09T20:58:47.164Z,26.27
2022-10-09T21:01:33.353Z,22.95
2022-10-09T21:04:19.374Z,25.15
2022-10-09T21:07:05.431Z,20.63
2022-10-09T21:09:51.713Z,20.10
2022-10-09T21:12:37.948Z,19.85
2022-10-09T21:15:24.123Z,21.58
2022-10-09T21:18:10.658Z,22.40
2022-10-09T21:20:56.490Z,23.17
2022-10-09T21:23:42.384Z,22.85
2022-10-09T21:26:29.826Z,21.17
2022-10-09T21:29:15.635Z,23.85
2022-10-09T21:32:01.639Z,21.23
2022-10-09T21:34:47.602Z,21.38
2022-10-09T21:37:37.317Z,22.90
2022-10-09T21:40:23.942Z,21.60
2022-10-09T21:43:10.698Z,19.95
2022-10-09T21:45:56.687Z,20.83
2022-10-09T21:48:42.371Z,21.20
2022-10-09T21:51:28.870Z,20.17
2022-10-09T21:54:15.074Z,22.20
2022-10-09T21:57:01.231Z,21.55
2022-10-09T21:59:47.611Z,22.48
2022-10-09T22:02:33.398Z,23.33
2022-10-09T22:05:19.783Z,22.45
2022-10-09T22:08:05.956Z,21.73
2022-10-09T22:10:52.457Z,21.77
2022-10-09T22:13:38.602Z,20.92
2022-10-09T22:16:24.654Z,21.67
2022-10-09T22:19:10.550Z,20.95
2022-10-09T22:21:56.826Z,21.92
2022-10-09T22:24:43.425Z,22.00
2022-10-09T22:27:29.315Z,21.58
2022-10-09T22:30:15.157Z,21.63
2022-10-09T22:33:00.887Z,20.35
2022-10-09T22:35:46.578Z,21.38
2022-10-09T22:38:32.682Z,20.38
2022-10-09T22:41:20.503Z,19.23
2022-10-09T22:44:08.356Z,20.52
2022-10-09T22:46:54.346Z,19.27
2022-10-09T22:49:40.193Z,19.85
2022-10-09T22:52:26.784Z,19.45
2022-10-09T22:55:12.675Z,19.10
2022-10-09T22:57:58.339Z,20.05
2022-10-09T23:00:44.193Z,22.13
2022-10-09T23:03:29.951Z,19.52
2022-10-09T23:06:18.380Z,19.73
2022-10-09T23:09:07.027Z,18.73
2022-10-09T23:11:53.301Z,20.50
2022-10-09T23:14:39.289Z,18.35
2022-10-09T23:17:25.170Z,19.63
2022-10-09T23:20:11.043Z,18.70
2022-10-09T23:22:57.009Z,19.30
2022-10-09T23:25:42.955Z,18.52
2022-10-09T23:28:28.938Z,18.70
2022-10-09T23:31:14.902Z,18.33
2022-10-09T23:34:01.322Z,18.60
2022-10-09T23:36:47.166Z,19.38
2022-10-09T23:39:32.798Z,18.73
2022-10-09T23:42:18.382Z,18.40
2022-10-09T23:45:04.634Z,18.23
2022-10-09T23:47:51.030Z,16.75
2022-10-09T23:50:36.945Z,18.65
2022-10-09T23:53:24.479Z,19.33
2022-10-09T23:56:20.419Z,18.10
2022-10-09T23:59:07.066Z,20.05
